createdAt,value
2018-07-01T00:01:52.897Z,62.70
2018-07-01T00:04:26.705Z,62.90
2018-07-01T00:07:00.435Z,62.80
2018-07-01T00:09:34.393Z,63.30
2018-07-01T00:12:08.418Z,63.00
2018-07-01T00:14:42.301Z,63.40
2018-07-01T00:17:16.142Z,63.40
2018-07-01T00:19:49.901Z,63.80
2018-07-01T00:22:23.797Z,63.70
2018-07-01T00:24:57.751Z,63.80
2018-07-01T00:27:31.506Z,63.70
2018-07-01T00:30:06.116Z,64.10
2018-07-01T00:32:39.875Z,64.40
2018-07-01T00:35:13.804Z,64.10
2018-07-01T00:37:47.620Z,64.00
2018-07-01T00:40:21.498Z,64.40
2018-07-01T00:42:55.330Z,65.00
2018-07-01T00:45:29.071Z,65.40
2018-07-01T00:48:02.826Z,65.30
2018-07-01T00:50:36.558Z,65.00
2018-07-01T00:53:10.375Z,65.20
2018-07-01T00:55:44.112Z,65.50
2018-07-01T00:58:17.841Z,65.90
2018-07-01T01:00:51.564Z,65.80
2018-07-01T01:03:25.432Z,66.40
2018-07-01T01:05:59.158Z,66.20
2018-07-01T01:08:32.887Z,66.40
2018-07-01T01:11:06.634Z,66.80
2018-07-01T01:13:40.468Z,67.10
2018-07-01T01:16:14.226Z,67.40
2018-07-01T01:18:47.973Z,67.50
2018-07-01T01:21:21.763Z,67.70
2018-07-01T01:23:55.510Z,69.20
2018-07-01T01:26:29.273Z,68.20
2018-07-01T01:29:03.062Z,68.70
2018-07-01T01:31:36.803Z,69.30
2018-07-01T01:34:10.680Z,68.60
2018-07-01T01:36:45.290Z,68.70
2018-07-01T01:39:22.524Z,68.90
2018-07-01T01:42:02.993Z,69.00
2018-07-01T01:44:56.315Z,68.90
2018-07-01T01:47:39.825Z,69.30
2018-07-01T01:50:22.335Z,69.50
2018-07-01T01:53:03.677Z,69.70
2018-07-01T01:55:57.377Z,70.10
2018-07-01T01:58:42.114Z,70.20
2018-07-01T02:01:33.144Z,70.60
2018-07-01T02:05:15.532Z,70.20
2018-07-01T02:07:55.135Z,70.30
2018-07-01T02:10:29.501Z,70.50
2018-07-01T02:13:03.429Z,71.20
2018-07-01T02:15:42.774Z,71.40
2018-07-01T02:18:16.629Z,71.40
2018-07-01T02:20:50.571Z,71.50
2018-07-01T02:23:28.352Z,71.50
2018-07-01T02:26:06.824Z,71.40
2018-07-01T02:28:40.685Z,71.60
2018-07-01T02:31:14.593Z,72.10
2018-07-01T02:33:48.348Z,72.50
2018-07-01T02:36:22.187Z,72.60
2018-07-01T02:38:55.930Z,72.70
2018-07-01T02:41:29.746Z,72.60
2018-07-01T02:44:03.513Z,72.70
2018-07-01T02:46:37.372Z,72.60
2018-07-01T02:49:11.096Z,72.80
2018-07-01T02:51:44.981Z,73.20
2018-07-01T02:54:18.634Z,73.20
2018-07-01T02:56:52.515Z,73.40
2018-07-01T02:59:26.253Z,74.00
2018-07-01T03:02:00.051Z,74.20
2018-07-01T03:04:33.799Z,73.90
2018-07-01T03:07:07.661Z,73.60
2018-07-01T03:09:41.494Z,73.60
2018-07-01T03:12:15.374Z,73.60
2018-07-01T03:14:49.165Z,73.70
2018-07-01T03:17:23.044Z,73.70
2018-07-01T03:19:56.933Z,74.00
2018-07-01T03:22:30.797Z,74.20
2018-07-01T03:25:04.600Z,74.30
2018-07-01T03:27:38.389Z,74.20
2018-07-01T03:30:12.226Z,73.90
2018-07-01T03:32:46.033Z,74.00
2018-07-01T03:35:19.865Z,74.10
2018-07-01T03:37:53.625Z,74.20
2018-07-01T03:40:27.319Z,74.80
2018-07-01T03:43:01.451Z,74.70
2018-07-01T03:45:35.621Z,74.10
2018-07-01T03:48:09.898Z,74.20
2018-07-01T03:50:43.725Z,74.10
2018-07-01T03:53:17.521Z,74.30
2018-07-01T03:55:51.280Z,74.70
2018-07-01T03:58:25.015Z,75.30
2018-07-01T04:00:58.865Z,75.00
2018-07-01T04:03:32.725Z,75.10
2018-07-01T04:06:06.547Z,75.10
2018-07-01T04:08:40.392Z,75.90
2018-07-01T04:11:14.185Z,75.60
2018-07-01T04:13:48.000Z,75.20
2018-07-01T04:16:21.753Z,75.40
2018-07-01T04:18:55.489Z,75.30
2018-07-01T04:21:29.289Z,75.50
2018-07-01T04:24:03.129Z,76.20
2018-07-01T04:26:36.913Z,76.20
2018-07-01T04:29:10.748Z,76.20
2018-07-01T04:31:44.561Z,76.50
2018-07-01T04:34:18.392Z,76.70
2018-07-01T04:36:52.208Z,76.30
2018-07-01T04:39:26.482Z,76.90
2018-07-01T04:42:00.273Z,76.90
2018-07-01T04:44:34.128Z,76.70
2018-07-01T04:47:07.860Z,76.40
2018-07-01T04:49:41.758Z,76.00
2018-07-01T04:52:15.561Z,76.20
2018-07-01T04:54:49.403Z,76.70
2018-07-01T04:57:23.150Z,76.80
2018-07-01T04:59:56.922Z,76.90
2018-07-01T05:02:30.772Z,76.90
2018-07-01T05:05:04.650Z,76.40
2018-07-01T05:07:38.449Z,76.20
2018-07-01T05:12:45.239Z,73.80
2018-07-01T05:15:19.061Z,73.50
2018-07-01T05:17:52.790Z,73.60
2018-07-01T05:20:26.592Z,73.10
2018-07-01T05:23:00.281Z,73.80
2018-07-01T05:28:07.120Z,72.50
2018-07-01T05:30:40.900Z,72.50
2018-07-01T05:33:14.717Z,72.30
2018-07-01T05:35:48.591Z,71.90
2018-07-01T05:38:22.354Z,72.10
2018-07-01T05:40:56.145Z,72.40
2018-07-01T05:43:29.895Z,72.20
2018-07-01T05:46:03.686Z,72.00
2018-07-01T05:48:37.513Z,71.20
2018-07-01T05:51:11.281Z,70.60
2018-07-01T05:53:45.185Z,70.50
2018-07-01T05:56:18.962Z,70.80
2018-07-01T05:58:52.721Z,71.00
2018-07-01T06:01:26.610Z,70.30
2018-07-01T06:04:00.410Z,70.70
2018-07-01T06:06:34.256Z,70.60
2018-07-01T06:09:12.353Z,70.10
2018-07-01T06:11:46.231Z,69.60
2018-07-01T06:14:20.148Z,68.20
2018-07-01T06:16:53.926Z,68.60
2018-07-01T06:19:27.923Z,68.80
2018-07-01T06:22:01.646Z,68.90
2018-07-01T06:24:35.523Z,68.60
2018-07-01T06:27:09.450Z,68.40
2018-07-01T06:29:43.264Z,68.00
2018-07-01T06:32:17.024Z,67.00
2018-07-01T06:34:50.902Z,66.80
2018-07-01T06:37:24.696Z,66.80
2018-07-01T06:39:58.461Z,65.60
2018-07-01T06:42:32.244Z,66.60
2018-07-01T06:45:06.121Z,65.90
2018-07-01T06:47:39.905Z,66.20
2018-07-01T06:50:13.716Z,64.70
2018-07-01T06:52:47.508Z,65.20
2018-07-01T06:55:21.272Z,63.90
2018-07-01T06:57:54.964Z,63.70
2018-07-01T07:00:28.790Z,64.40
2018-07-01T07:03:02.586Z,63.60
2018-07-01T07:05:36.350Z,63.70
2018-07-01T07:08:10.163Z,63.80
2018-07-01T07:10:43.895Z,61.90
2018-07-01T07:13:17.621Z,61.60
2018-07-01T07:15:51.411Z,61.70
2018-07-01T07:18:25.237Z,60.50
2018-07-01T07:20:59.168Z,60.40
2018-07-01T07:23:33.287Z,59.40
2018-07-01T07:26:07.135Z,58.30
2018-07-01T07:28:40.995Z,59.50
2018-07-01T07:31:14.995Z,58.20
2018-07-01T07:33:48.995Z,57.30
2018-07-01T07:36:22.740Z,58.10
2018-07-01T07:38:56.445Z,57.70
2018-07-01T07:41:30.160Z,57.80
2018-07-01T07:44:03.927Z,57.20
2018-07-01T07:46:37.876Z,56.20
2018-07-01T07:49:11.610Z,59.60
2018-07-01T07:51:45.556Z,57.70
2018-07-01T07:54:19.334Z,57.30
2018-07-01T07:56:53.162Z,57.20
2018-07-01T07:59:27.012Z,56.20
2018-07-01T08:02:00.858Z,55.20
2018-07-01T08:04:34.600Z,55.40
2018-07-01T08:07:08.390Z,55.50
2018-07-01T08:09:42.171Z,54.40
2018-07-01T08:12:15.976Z,53.60
2018-07-01T08:14:49.645Z,55.00
2018-07-01T08:17:23.333Z,54.30
2018-07-01T08:19:57.016Z,53.10
2018-07-01T08:22:30.828Z,51.30
2018-07-01T08:25:04.594Z,50.30
2018-07-01T08:27:38.342Z,49.80
2018-07-01T08:30:12.194Z,48.50
2018-07-01T08:32:46.225Z,48.30
2018-07-01T08:35:19.978Z,47.50
2018-07-01T08:37:53.726Z,47.50
2018-07-01T08:40:27.440Z,46.80
2018-07-01T08:43:01.236Z,47.10
2018-07-01T08:45:35.100Z,46.90
2018-07-01T08:48:08.936Z,47.20
2018-07-01T08:50:42.680Z,46.70
2018-07-01T08:53:16.431Z,48.10
2018-07-01T08:55:50.243Z,48.20
2018-07-01T08:58:24.042Z,48.30
2018-07-01T09:00:57.788Z,48.10
2018-07-01T09:03:31.601Z,46.30
2018-07-01T09:06:05.315Z,45.30
2018-07-01T09:08:39.144Z,47.10
2018-07-01T09:11:13.162Z,46.20
2018-07-01T09:13:47.088Z,47.10
2018-07-01T09:16:20.772Z,46.00
2018-07-01T09:18:54.537Z,46.80
2018-07-01T09:21:28.250Z,45.50
2018-07-01T09:24:02.052Z,46.20
2018-07-01T09:26:35.763Z,46.00
2018-07-01T09:29:09.587Z,45.90
2018-07-01T09:31:43.339Z,45.10
2018-07-01T09:34:17.928Z,45.90
2018-07-01T09:36:52.331Z,45.30
2018-07-01T09:41:59.644Z,44.90
2018-07-01T09:44:33.472Z,44.90
2018-07-01T09:47:07.229Z,44.90
2018-07-01T09:49:41.112Z,45.30
2018-07-01T09:52:14.947Z,45.90
2018-07-01T09:54:48.808Z,45.70
2018-07-01T09:57:22.630Z,44.90
2018-07-01T09:59:56.496Z,46.00
2018-07-01T10:02:30.389Z,46.10
2018-07-01T10:05:04.169Z,45.70
2018-07-01T10:07:37.990Z,45.80
2018-07-01T10:10:11.785Z,45.50
2018-07-01T10:12:45.549Z,44.40
2018-07-01T10:15:19.342Z,44.70
2018-07-01T10:17:53.109Z,43.50
2018-07-01T10:20:26.945Z,44.70
2018-07-01T10:23:00.732Z,44.20
2018-07-01T10:25:34.690Z,45.30
2018-07-01T10:28:08.562Z,43.50
2018-07-01T10:30:42.463Z,43.80
2018-07-01T10:33:16.401Z,43.60
2018-07-01T10:35:50.762Z,43.80
2018-07-01T10:38:25.696Z,43.50
2018-07-01T10:41:01.200Z,43.10
2018-07-01T10:43:36.727Z,42.50
2018-07-01T10:46:12.197Z,43.00
2018-07-01T10:48:47.677Z,42.40
2018-07-01T10:51:24.142Z,42.10
2018-07-01T10:53:59.018Z,41.90
2018-07-01T10:56:36.234Z,41.50
2018-07-01T10:59:11.565Z,41.70
2018-07-01T11:04:20.050Z,40.10
2018-07-01T11:06:55.341Z,40.10
2018-07-01T11:09:29.315Z,40.50
2018-07-01T11:12:03.331Z,41.60
2018-07-01T11:14:37.269Z,40.80
2018-07-01T11:17:11.899Z,40.00
2018-07-01T11:19:46.776Z,41.20
2018-07-01T11:22:20.695Z,40.70
2018-07-01T11:24:55.125Z,41.00
2018-07-01T11:27:28.948Z,40.40
2018-07-01T11:30:03.319Z,40.90
2018-07-01T11:32:37.531Z,40.10
2018-07-01T11:35:11.739Z,38.80
2018-07-01T11:37:46.313Z,40.30
2018-07-01T11:40:22.875Z,41.10
2018-07-01T11:42:57.145Z,39.90
2018-07-01T11:45:32.771Z,39.20
2018-07-01T11:48:08.286Z,39.40
2018-07-01T11:50:43.176Z,40.80
2018-07-01T11:53:20.295Z,39.90
2018-07-01T11:55:55.643Z,39.20
2018-07-01T11:58:30.252Z,39.00
2018-07-01T12:01:06.779Z,38.90
2018-07-01T12:03:42.603Z,38.40
2018-07-01T12:06:19.209Z,37.70
2018-07-01T12:08:54.746Z,37.60
2018-07-01T12:11:28.918Z,38.00
2018-07-01T12:14:03.958Z,39.50
2018-07-01T12:16:39.085Z,39.40
2018-07-01T12:19:16.373Z,38.70
2018-07-01T12:21:50.794Z,38.30
2018-07-01T12:24:26.895Z,38.70
2018-07-01T12:27:01.922Z,39.80
2018-07-01T12:29:38.586Z,39.20
2018-07-01T12:32:14.351Z,38.70
2018-07-01T12:34:50.264Z,38.60
2018-07-01T12:37:24.059Z,38.50
2018-07-01T12:39:59.461Z,38.50
2018-07-01T12:42:34.763Z,38.50
2018-07-01T12:45:12.899Z,39.00
2018-07-01T12:47:49.068Z,38.30
2018-07-01T12:50:25.663Z,38.10
2018-07-01T12:53:01.858Z,36.80
2018-07-01T12:55:37.788Z,36.90
2018-07-01T12:58:14.763Z,36.80
2018-07-01T13:00:52.191Z,37.30
2018-07-01T13:03:27.459Z,37.20
2018-07-01T13:06:01.463Z,37.80
2018-07-01T13:08:35.277Z,38.90
2018-07-01T13:11:09.497Z,37.80
2018-07-01T13:13:43.344Z,37.30
2018-07-01T13:16:17.213Z,37.10
2018-07-01T13:18:51.486Z,37.10
2018-07-01T13:21:25.365Z,37.40
2018-07-01T13:24:00.748Z,38.10
2018-07-01T13:26:34.612Z,38.10
2018-07-01T13:29:09.300Z,37.50
2018-07-01T13:31:43.248Z,36.30
2018-07-01T13:34:18.036Z,38.00
2018-07-01T13:36:52.367Z,38.40
2018-07-01T13:39:27.125Z,38.90
2018-07-01T13:42:03.012Z,37.60
2018-07-01T13:44:36.913Z,37.10
2018-07-01T13:47:11.512Z,36.50
2018-07-01T13:49:45.493Z,36.90
2018-07-01T13:52:19.365Z,36.20
2018-07-01T13:54:53.098Z,36.50
2018-07-01T13:57:27.130Z,36.20
2018-07-01T14:00:01.002Z,36.40
2018-07-01T14:02:35.144Z,37.20
2018-07-01T14:05:08.992Z,37.30
2018-07-01T14:07:42.795Z,35.80
2018-07-01T14:10:16.678Z,35.80
2018-07-01T14:12:50.470Z,35.30
2018-07-01T14:15:24.238Z,34.60
2018-07-01T14:17:58.243Z,33.80
2018-07-01T14:20:31.998Z,32.80
2018-07-01T14:23:05.831Z,33.90
2018-07-01T14:25:39.653Z,33.40
2018-07-01T14:28:13.470Z,33.10
2018-07-01T14:30:47.179Z,33.20
2018-07-01T14:33:21.060Z,32.90
2018-07-01T14:35:54.781Z,33.80
2018-07-01T14:38:28.545Z,32.50
2018-07-01T14:41:02.264Z,32.50
2018-07-01T14:43:36.171Z,32.40
2018-07-01T14:46:09.940Z,31.80
2018-07-01T14:48:43.715Z,31.20
2018-07-01T14:51:17.384Z,30.40
2018-07-01T14:53:51.125Z,30.30
2018-07-01T14:56:24.891Z,30.70
2018-07-01T14:59:00.089Z,30.00
2018-07-01T15:01:33.905Z,30.50
2018-07-01T15:04:07.839Z,32.10
2018-07-01T15:09:16.416Z,30.60
2018-07-01T15:11:50.334Z,30.60
2018-07-01T15:14:24.108Z,30.40
2018-07-01T15:16:57.798Z,29.90
2018-07-01T15:19:31.506Z,30.70
2018-07-01T15:22:06.042Z,30.40
2018-07-01T15:24:39.891Z,29.70
2018-07-01T15:27:14.710Z,29.70
2018-07-01T15:29:48.510Z,29.90
2018-07-01T15:32:23.158Z,29.70
2018-07-01T15:34:56.974Z,29.40
2018-07-01T15:37:30.801Z,29.70
2018-07-01T15:40:04.673Z,29.70
2018-07-01T15:42:38.782Z,30.00
2018-07-01T15:45:12.593Z,30.30
2018-07-01T15:47:46.500Z,29.60
2018-07-01T15:50:20.328Z,29.50
2018-07-01T15:52:54.998Z,29.90
2018-07-01T15:55:30.353Z,30.10
2018-07-01T15:58:06.683Z,30.00
2018-07-01T16:00:42.712Z,29.50
2018-07-01T16:03:19.296Z,29.80
2018-07-01T16:05:55.226Z,29.70
2018-07-01T16:08:30.433Z,30.00
2018-07-01T16:11:07.161Z,30.50
2018-07-01T16:13:43.530Z,30.10
2018-07-01T16:16:18.588Z,29.80
2018-07-01T16:18:52.765Z,29.70
2018-07-01T16:21:29.518Z,29.80
2018-07-01T16:24:03.373Z,29.30
2018-07-01T16:26:42.801Z,29.70
2018-07-01T16:31:52.533Z,30.50
2018-07-01T16:34:26.365Z,30.00
2018-07-01T16:37:02.175Z,29.70
2018-07-01T16:39:37.235Z,29.70
2018-07-01T16:42:12.825Z,30.10
2018-07-01T16:44:49.994Z,30.50
2018-07-01T16:47:23.742Z,30.00
2018-07-01T16:49:57.458Z,30.00
2018-07-01T16:52:31.275Z,30.10
2018-07-01T16:55:04.977Z,30.10
2018-07-01T16:57:38.787Z,29.90
2018-07-01T17:00:12.724Z,30.20
2018-07-01T17:02:46.914Z,30.70
2018-07-01T17:05:20.723Z,30.30
2018-07-01T17:10:27.796Z,31.60
2018-07-01T17:13:01.638Z,31.60
2018-07-01T17:15:35.567Z,31.70
2018-07-01T17:18:09.306Z,32.10
2018-07-01T17:20:43.137Z,31.80
2018-07-01T17:23:16.934Z,33.00
2018-07-01T17:25:54.833Z,32.80
2018-07-01T17:28:28.685Z,33.50
2018-07-01T17:31:07.161Z,33.10
2018-07-01T17:33:40.947Z,33.70
2018-07-01T17:36:14.754Z,34.30
2018-07-01T17:38:48.628Z,34.10
2018-07-01T17:41:22.478Z,34.30
2018-07-01T17:43:56.448Z,34.70
2018-07-01T17:46:30.216Z,34.90
2018-07-01T17:49:04.093Z,34.60
2018-07-01T17:51:37.821Z,35.10
2018-07-01T17:54:11.804Z,35.30
2018-07-01T17:56:45.486Z,35.00
2018-07-01T17:59:19.335Z,35.70
2018-07-01T18:01:53.051Z,36.00
2018-07-01T18:04:26.936Z,36.10
2018-07-01T18:07:00.667Z,36.20
2018-07-01T18:09:34.609Z,36.80
2018-07-01T18:12:08.530Z,37.00
2018-07-01T18:14:42.344Z,37.80
2018-07-01T18:17:16.160Z,37.20
2018-07-01T18:19:50.024Z,37.50
2018-07-01T18:22:52.491Z,37.50
2018-07-01T18:25:04.501Z,38.40
2018-07-01T18:27:36.095Z,38.20
2018-07-01T18:30:05.574Z,38.10
2018-07-01T18:32:39.303Z,38.40
2018-07-01T18:35:13.113Z,38.40
2018-07-01T18:37:46.893Z,38.60
2018-07-01T18:40:20.958Z,39.20
2018-07-01T18:42:54.764Z,39.60
2018-07-01T18:45:28.562Z,40.30
2018-07-01T18:48:02.369Z,40.10
2018-07-01T18:50:36.221Z,40.10
2018-07-01T18:53:10.075Z,40.30
2018-07-01T18:55:43.895Z,40.30
2018-07-01T18:58:18.542Z,40.80
2018-07-01T19:00:52.401Z,40.80
2018-07-01T19:03:26.110Z,40.70
2018-07-01T19:05:59.936Z,41.70
2018-07-01T19:08:33.632Z,41.40
2018-07-01T19:11:07.481Z,41.40
2018-07-01T19:13:41.290Z,42.00
2018-07-01T19:16:15.127Z,41.40
2018-07-01T19:18:48.916Z,41.80
2018-07-01T19:21:22.721Z,41.90
2018-07-01T19:23:56.514Z,42.20
2018-07-01T19:26:30.193Z,42.50
2018-07-01T19:29:03.936Z,42.70
2018-07-01T19:31:38.702Z,42.70
2018-07-01T19:34:24.829Z,42.80
2018-07-01T19:36:59.344Z,43.60
2018-07-01T19:39:33.102Z,43.30
2018-07-01T19:42:06.947Z,43.40
2018-07-01T19:44:41.088Z,43.50
2018-07-01T19:47:15.049Z,43.90
2018-07-01T19:52:21.894Z,44.70
2018-07-01T19:54:55.661Z,44.70
2018-07-01T19:57:29.995Z,44.70
2018-07-01T20:00:03.804Z,45.30
2018-07-01T20:02:37.832Z,46.20
2018-07-01T20:05:13.382Z,46.00
2018-07-01T20:07:47.502Z,46.30
2018-07-01T20:10:22.404Z,46.60
2018-07-01T20:12:56.230Z,46.90
2018-07-01T20:15:29.982Z,47.00
2018-07-01T20:18:03.845Z,47.40
2018-07-01T20:20:39.936Z,48.00
2018-07-01T20:23:15.350Z,48.10
2018-07-01T20:25:50.020Z,48.20
2018-07-01T20:28:28.419Z,48.70
2018-07-01T20:31:08.923Z,48.90
2018-07-01T20:33:44.050Z,48.70
2018-07-01T20:36:19.108Z,49.40
2018-07-01T20:38:56.883Z,49.60
2018-07-01T20:41:36.613Z,50.20
2018-07-01T20:44:13.255Z,50.40
2018-07-01T20:46:49.849Z,50.60
2018-07-01T20:49:27.030Z,50.50
2018-07-01T20:52:04.016Z,50.90
2018-07-01T20:54:39.613Z,51.20
2018-07-01T20:57:17.013Z,51.40
2018-07-01T20:59:55.626Z,51.90
2018-07-01T21:02:31.661Z,52.20
2018-07-01T21:05:07.453Z,52.50
2018-07-01T21:07:45.711Z,52.90
2018-07-01T21:10:19.892Z,53.00
2018-07-01T21:12:57.847Z,53.70
2018-07-01T21:15:35.284Z,53.80
2018-07-01T21:18:13.976Z,53.80
2018-07-01T21:20:50.721Z,54.30
2018-07-01T21:23:30.138Z,54.60
2018-07-01T21:26:05.162Z,54.90
2018-07-01T21:28:45.217Z,55.20
2018-07-01T21:31:25.056Z,55.50
2018-07-01T21:34:05.679Z,55.70
2018-07-01T21:36:44.620Z,55.70
2018-07-01T21:39:23.740Z,55.80
2018-07-01T21:42:03.147Z,56.20
2018-07-01T21:44:41.309Z,56.60
2018-07-01T21:47:29.849Z,56.60
2018-07-01T21:50:04.641Z,56.70
2018-07-01T21:52:39.432Z,57.10
2018-07-01T21:55:14.951Z,57.60
2018-07-01T21:57:50.320Z,57.70
2018-07-01T22:00:28.958Z,57.60
2018-07-01T22:03:05.332Z,57.80
2018-07-01T22:05:39.202Z,58.10
2018-07-01T22:08:13.139Z,58.00
2018-07-01T22:12:14.023Z,58.30
2018-07-01T22:17:38.382Z,58.10
2018-07-01T22:20:12.739Z,58.30
2018-07-01T22:22:46.552Z,58.50
2018-07-01T22:25:20.374Z,58.80
2018-07-01T22:27:54.196Z,58.90
2018-07-01T22:30:28.001Z,58.90
2018-07-01T22:33:01.807Z,59.10
2018-07-01T22:35:35.688Z,58.90
2018-07-01T22:38:09.586Z,58.90
2018-07-01T22:40:43.763Z,58.90
2018-07-01T22:43:17.561Z,59.20
2018-07-01T22:45:51.383Z,58.90
2018-07-01T22:48:25.241Z,58.90
2018-07-01T22:50:59.156Z,59.00
2018-07-01T22:53:33.176Z,59.60
2018-07-01T22:56:07.041Z,59.10
2018-07-01T22:58:40.920Z,59.10
2018-07-01T23:01:14.674Z,59.30
2018-07-01T23:06:21.141Z,59.10
2018-07-01T23:08:54.957Z,59.30
2018-07-01T23:11:28.738Z,59.50
2018-07-01T23:14:02.471Z,59.50
2018-07-01T23:16:36.261Z,59.90
2018-07-01T23:19:10.065Z,60.40
2018-07-01T23:21:43.861Z,60.30
2018-07-01T23:24:17.659Z,60.70
2018-07-01T23:26:51.491Z,61.10
2018-07-01T23:29:25.251Z,61.30
2018-07-01T23:31:59.083Z,61.30
2018-07-01T23:34:32.951Z,62.10
2018-07-01T23:37:06.889Z,62.30
2018-07-01T23:39:40.820Z,62.40
2018-07-01T23:42:14.789Z,62.10
2018-07-01T23:44:48.624Z,62.60
2018-07-01T23:47:22.864Z,62.40
2018-07-01T23:49:56.756Z,62.80
2018-07-01T23:52:30.542Z,63.10
2018-07-01T23:55:04.318Z,63.40
2018-07-01T23:57:38.222Z,63.50
